Time;durP1;ratioP1;P1;durP2;ratioP2;P2;SDS_P1;SDS_P2;PMS_P1;PMS_P2;Temp;Humidity;BMP_temperature;BMP_pressure;BME280_temperature;BME280_humidity;BME280_pressure;Samples;Min_cycle;Max_cycle;Signal;HPM_P1;HPM_P2
2022/11/07 00:01:10;;;;;;;7.43;2.10;;;16.20;99.90;;;;;;4958700;28;20193;-73
2022/11/07 00:03:37;;;;;;;8.25;2.05;;;16.20;99.90;;;;;;4969128;28;20679;-74
2022/11/07 00:06:03;;;;;;;6.28;1.98;;;16.20;99.90;;;;;;4978091;28;20031;-73
2022/11/07 00:08:30;;;;;;;5.97;1.55;;;16.10;99.90;;;;;;4974688;28;20362;-74
2022/11/07 00:11:04;;;;;;;6.50;2.00;;;16.10;99.90;;;;;;4977092;28;20074;-74
2022/11/07 00:13:30;;;;;;;7.13;2.10;;;16.10;99.90;;;;;;4997012;28;20069;-73
2022/11/07 00:16:08;;;;;;;8.18;1.85;;;16.10;99.90;;;;;;4994223;28;20488;-73
2022/11/07 00:18:34;;;;;;;9.95;2.35;;;16.00;99.90;;;;;;4997179;28;20067;-73
2022/11/07 00:21:05;;;;;;;8.85;1.92;;;16.00;99.90;;;;;;4975744;28;20070;-73
2022/11/07 00:23:32;;;;;;;7.32;2.13;;;16.00;99.90;;;;;;4977387;28;25973;-73
2022/11/07 00:26:10;;;;;;;6.78;1.85;;;15.90;99.90;;;;;;4979435;28;20104;-73
2022/11/07 00:28:38;;;;;;;7.20;2.13;;;15.90;99.90;;;;;;4994629;28;20531;-73
2022/11/07 00:31:06;;;;;;;7.38;2.03;;;15.90;99.90;;;;;;4967071;28;20043;-73
2022/11/07 00:33:32;;;;;;;10.75;2.72;;;15.90;99.90;;;;;;4946086;28;20070;-73
2022/11/07 00:35:58;;;;;;;8.52;2.58;;;15.80;99.90;;;;;;4977204;28;20097;-72
2022/11/07 00:38:24;;;;;;;7.80;2.35;;;15.80;99.90;;;;;;4976158;28;20037;-73
2022/11/07 00:40:57;;;;;;;9.27;2.35;;;15.80;99.90;;;;;;4994738;28;20133;-72
2022/11/07 00:43:24;;;;;;;12.98;2.63;;;15.80;99.90;;;;;;4993984;28;20515;-72
2022/11/07 00:45:50;;;;;;;6.30;2.03;;;15.70;99.90;;;;;;4959773;28;20077;-73
2022/11/07 00:48:16;;;;;;;9.43;2.65;;;15.70;99.90;;;;;;4971455;28;20041;-73
2022/11/07 00:50:42;;;;;;;6.00;2.05;;;15.60;99.90;;;;;;4979670;28;20038;-73
2022/11/07 00:53:08;;;;;;;8.82;2.30;;;15.60;99.90;;;;;;4996003;28;20049;-73
2022/11/07 00:55:35;;;;;;;6.63;2.03;;;15.50;99.90;;;;;;4996736;28;20113;-73
2022/11/07 00:58:01;;;;;;;7.50;2.10;;;15.50;99.90;;;;;;4979720;28;20058;-72
2022/11/07 01:00:27;;;;;;;6.78;1.67;;;15.40;99.90;;;;;;4982504;28;20465;-73
2022/11/07 01:05:39;;;;;;;7.05;2.00;;;15.40;99.90;;;;;;4962178;28;20415;-73
2022/11/07 01:08:05;;;;;;;5.90;1.70;;;15.40;99.90;;;;;;4970035;28;20395;-74
2022/11/07 01:10:31;;;;;;;8.95;2.00;;;15.50;99.90;;;;;;4948273;28;20072;-73
2022/11/07 01:12:57;;;;;;;7.75;2.58;;;15.40;99.90;;;;;;4977822;28;20859;-73
2022/11/07 01:15:23;;;;;;;11.70;2.40;;;15.40;99.90;;;;;;4982015;28;20041;-73
2022/11/07 01:17:49;;;;;;;8.13;1.70;;;15.30;99.90;;;;;;4994948;28;20049;-72
2022/11/07 01:20:15;;;;;;;5.20;1.35;;;15.40;99.90;;;;;;4987739;28;20129;-73
2022/11/07 01:22:41;;;;;;;5.30;1.42;;;15.30;99.90;;;;;;4976800;28;20050;-73
2022/11/07 01:25:07;;;;;;;7.07;1.50;;;15.30;99.90;;;;;;4977158;28;20031;-73
2022/11/07 01:27:33;;;;;;;6.28;1.67;;;15.20;99.90;;;;;;4977200;28;20038;-73
2022/11/07 01:29:58;;;;;;;9.60;1.80;;;15.20;99.90;;;;;;4965001;28;20053;-73
2022/11/07 01:32:24;;;;;;;5.13;1.38;;;15.20;99.90;;;;;;4980342;28;20042;-73
2022/11/07 01:34:50;;;;;;;4.18;1.40;;;15.20;99.90;;;;;;4980863;28;20038;-73
2022/11/07 01:37:16;;;;;;;6.80;1.70;;;15.10;99.90;;;;;;4954668;28;20034;-74
2022/11/07 01:39:43;;;;;;;4.47;1.67;;;15.10;99.90;;;;;;4985739;28;20305;-73
2022/11/07 01:42:13;;;;;;;5.68;1.48;;;15.10;99.90;;;;;;4981971;28;20048;-74
2022/11/07 01:44:39;;;;;;;6.45;2.00;;;15.00;99.90;;;;;;4997705;28;20092;-73
2022/11/07 01:47:05;;;;;;;8.63;1.63;;;15.00;99.90;;;;;;4997283;28;20030;-73
2022/11/07 01:49:37;;;;;;;4.82;1.40;;;15.10;99.90;;;;;;4999392;28;20092;-73
2022/11/07 01:52:19;;;;;;;4.97;1.25;;;15.00;99.90;;;;;;4980145;28;20026;-73
2022/11/07 01:54:52;;;;;;;7.40;1.95;;;15.10;99.90;;;;;;4982553;28;20108;-72
2022/11/07 01:57:26;;;;;;;6.00;1.63;;;15.20;99.90;;;;;;5001271;28;20030;-73
2022/11/07 01:59:56;;;;;;;5.70;1.48;;;15.20;99.90;;;;;;4997862;28;20053;-73
2022/11/07 02:02:25;;;;;;;6.75;1.95;;;15.20;99.90;;;;;;4999142;28;20076;-73
2022/11/07 02:04:53;;;;;;;4.50;1.38;;;15.20;99.90;;;;;;5000284;28;20833;-74
2022/11/07 02:07:22;;;;;;;8.18;1.88;;;15.10;99.90;;;;;;4996786;28;20030;-74
2022/11/07 02:09:50;;;;;;;12.93;2.63;;;15.10;99.90;;;;;;4997485;28;20043;-73
2022/11/07 02:12:17;;;;;;;7.90;1.80;;;15.20;99.90;;;;;;4980457;28;20042;-73
2022/11/07 02:14:43;;;;;;;5.65;1.75;;;15.20;99.90;;;;;;5002626;28;20048;-73
2022/11/07 02:17:11;;;;;;;9.45;1.80;;;15.10;99.90;;;;;;4997596;28;20561;-73
2022/11/07 02:19:47;;;;;;;7.88;2.08;;;15.00;99.90;;;;;;4984746;28;20800;-73
2022/11/07 02:22:41;;;;;;;6.38;1.77;;;15.00;99.90;;;;;;4980507;28;20488;-74
2022/11/07 02:25:11;;;;;;;6.10;1.80;;;15.00;99.90;;;;;;4999390;28;20057;-73
2022/11/07 02:27:39;;;;;;;4.50;1.50;;;14.90;99.90;;;;;;4997488;28;20077;-73
2022/11/07 02:30:10;;;;;;;4.18;1.50;;;14.90;99.90;;;;;;4963504;28;20046;-72
2022/11/07 02:32:37;;;;;;;4.82;1.70;;;14.80;99.90;;;;;;4980929;28;20076;-72
2022/11/07 02:35:42;;;;;;;7.97;1.80;;;14.80;99.90;;;;;;4979507;28;20045;-72
2022/11/07 02:38:34;;;;;;;6.43;1.50;;;14.80;99.90;;;;;;4998864;28;20062;-72
2022/11/07 02:41:08;;;;;;;4.15;1.40;;;14.80;99.90;;;;;;5000017;28;20508;-73
2022/11/07 02:43:38;;;;;;;6.30;1.70;;;14.80;99.90;;;;;;4984232;28;20097;-72
2022/11/07 02:46:08;;;;;;;6.57;1.30;;;14.80;99.90;;;;;;4934791;28;20034;-72
2022/11/07 02:48:51;;;;;;;7.30;1.90;;;14.80;99.90;;;;;;5000454;28;20046;-73
2022/11/07 02:51:18;;;;;;;5.82;1.52;;;14.80;99.90;;;;;;4970857;28;20073;-73
2022/11/07 02:53:45;;;;;;;5.18;1.63;;;14.70;99.90;;;;;;4980388;28;20035;-72
2022/11/07 02:56:12;;;;;;;8.52;1.80;;;14.70;99.90;;;;;;4972971;28;20030;-73
2022/11/07 02:58:38;;;;;;;;;;;14.80;99.90;;;;;;4988275;28;20061;-73
2022/11/07 03:01:08;;;;;;;6.85;1.40;;;14.80;99.90;;;;;;4979019;28;20364;-72
2022/11/07 03:03:35;;;;;;;6.55;1.35;;;14.80;99.90;;;;;;4981352;28;20056;-72
2022/11/07 03:06:01;;;;;;;6.25;1.20;;;14.80;99.90;;;;;;4969814;28;20355;-73
2022/11/07 03:08:28;;;;;;;3.40;1.00;;;14.70;99.90;;;;;;4984010;28;20042;-74
2022/11/07 03:10:53;;;;;;;4.90;1.42;;;14.70;99.90;;;;;;4967684;28;20932;-72
2022/11/07 03:13:19;;;;;;;5.85;0.90;;;14.70;99.90;;;;;;4967085;28;20030;-72
2022/11/07 03:15:45;;;;;;;4.82;1.20;;;14.70;99.90;;;;;;4979761;28;20046;-73
2022/11/07 03:18:11;;;;;;;3.85;0.90;;;14.60;99.90;;;;;;4961349;28;20045;-72
2022/11/07 03:20:37;;;;;;;4.43;1.17;;;14.60;99.90;;;;;;4963178;28;20058;-72
2022/11/07 03:23:03;;;;;;;3.70;1.13;;;14.60;99.90;;;;;;4956388;28;20050;-72
2022/11/07 03:25:30;;;;;;;5.72;1.42;;;14.50;99.90;;;;;;4981404;28;20188;-72
2022/11/07 03:27:55;;;;;;;3.88;1.25;;;14.50;99.90;;;;;;4960673;28;20106;-73
2022/11/07 03:30:21;;;;;;;4.95;1.27;;;14.60;99.90;;;;;;4966964;28;20308;-73
2022/11/07 03:32:47;;;;;;;6.82;1.27;;;14.60;99.90;;;;;;4976066;28;20043;-73
2022/11/07 03:35:13;;;;;;;3.92;1.15;;;14.60;99.90;;;;;;4977983;28;20034;-73
2022/11/07 03:37:39;;;;;;;5.80;1.52;;;14.60;99.90;;;;;;4962620;28;20038;-73
2022/11/07 03:40:06;;;;;;;6.13;1.23;;;14.60;99.90;;;;;;4960840;28;20081;-73
2022/11/07 03:42:40;;;;;;;4.97;1.25;;;14.70;99.90;;;;;;4961234;28;20043;-74
2022/11/07 03:45:08;;;;;;;5.22;1.25;;;14.70;99.90;;;;;;4959882;28;20039;-73
2022/11/07 03:47:35;;;;;;;5.05;1.30;;;14.70;99.90;;;;;;4959698;28;20444;-73
2022/11/07 03:50:02;;;;;;;3.10;1.10;;;14.70;99.90;;;;;;4967219;28;20034;-73
2022/11/07 03:52:28;;;;;;;8.32;1.48;;;14.70;99.90;;;;;;4967809;28;20440;-73
2022/11/07 03:54:54;;;;;;;4.32;1.20;;;14.70;99.90;;;;;;4980871;28;20128;-73
2022/11/07 03:57:19;;;;;;;5.28;1.08;;;14.80;99.90;;;;;;4971912;28;20350;-73
2022/11/07 03:59:45;;;;;;;3.67;0.95;;;14.80;99.90;;;;;;4982746;28;20042;-73
2022/11/07 04:02:11;;;;;;;2.13;0.82;;;14.90;99.90;;;;;;4977424;28;20045;-73
2022/11/07 04:04:37;;;;;;;4.68;1.10;;;14.90;99.90;;;;;;4991812;28;20136;-72
2022/11/07 04:07:03;;;;;;;3.08;0.90;;;14.90;99.90;;;;;;4978791;28;20169;-73
2022/11/07 04:09:29;;;;;;;3.30;0.80;;;14.90;99.90;;;;;;4983265;28;20125;-73
2022/11/07 04:17:37;;;;;;;4.28;1.05;;;15.00;99.90;;;;;;4985940;28;20452;-73
2022/11/07 04:20:04;;;;;;;3.63;1.08;;;15.00;99.90;;;;;;4992511;28;20042;-73
2022/11/07 04:22:30;;;;;;;3.40;0.90;;;15.00;99.90;;;;;;4989852;28;20042;-73
2022/11/07 04:24:56;;;;;;;6.22;1.08;;;15.00;99.90;;;;;;4995786;28;20567;-72
2022/11/07 04:30:26;;;;;;;6.60;1.10;;;15.00;99.90;;;;;;4982002;28;20095;-73
2022/11/07 04:32:57;;;;;;;3.35;0.82;;;14.90;99.90;;;;;;4984587;28;20428;-72
2022/11/07 04:35:26;;;;;;;5.20;1.10;;;14.90;99.90;;;;;;4997653;28;20038;-73
2022/11/07 04:37:53;;;;;;;4.57;1.15;;;14.90;99.90;;;;;;4983525;28;20528;-72
2022/11/07 04:40:20;;;;;;;3.20;0.70;;;14.90;99.90;;;;;;4976424;28;20038;-72
2022/11/07 04:42:47;;;;;;;4.95;1.17;;;14.90;99.90;;;;;;4992173;28;20046;-73
2022/11/07 04:45:13;;;;;;;3.95;0.80;;;14.90;99.90;;;;;;4965090;28;20066;-73
2022/11/07 04:47:40;;;;;;;3.38;0.95;;;14.80;99.90;;;;;;5001564;28;20026;-73
2022/11/07 04:50:12;;;;;;;3.78;0.77;;;14.80;99.90;;;;;;4983403;28;20058;-73
2022/11/07 04:52:39;;;;;;;3.72;0.85;;;14.80;99.90;;;;;;5003498;28;20037;-73
2022/11/07 04:55:15;;;;;;;3.97;1.00;;;14.80;99.90;;;;;;4984129;28;20421;-73
2022/11/07 04:57:40;;;;;;;3.85;0.90;;;14.80;99.90;;;;;;5003437;28;20038;-73
2022/11/07 05:00:07;;;;;;;3.92;1.38;;;14.80;99.90;;;;;;4992937;28;20049;-73
2022/11/07 05:02:34;;;;;;;3.40;0.82;;;14.70;99.90;;;;;;5002765;28;20088;-73
2022/11/07 05:05:00;;;;;;;3.38;0.90;;;14.70;99.90;;;;;;4974377;28;20842;-73
2022/11/07 05:07:26;;;;;;;3.85;0.90;;;14.80;99.90;;;;;;4986452;28;20042;-74
2022/11/07 05:09:51;;;;;;;6.53;1.10;;;14.80;99.90;;;;;;4984480;28;20081;-73
2022/11/07 05:12:17;;;;;;;3.33;0.73;;;14.80;99.90;;;;;;4999724;28;20057;-73
2022/11/07 05:14:43;;;;;;;3.25;0.70;;;14.80;99.90;;;;;;4972337;28;20810;-73
2022/11/07 05:17:14;;;;;;;5.18;1.00;;;14.80;99.90;;;;;;4977571;28;20034;-73
2022/11/07 05:19:42;;;;;;;4.05;1.17;;;14.80;99.90;;;;;;4968768;28;20061;-73
2022/11/07 05:24:53;;;;;;;;;;;14.80;99.90;;;;;;4968120;28;20112;-74
2022/11/07 05:27:20;;;;;;;3.50;0.93;;;14.80;99.90;;;;;;4982160;28;19921;-75
2022/11/07 05:29:46;;;;;;;4.20;0.90;;;14.70;99.90;;;;;;4982431;28;20062;-73
2022/11/07 05:32:13;;;;;;;3.80;1.00;;;14.70;99.90;;;;;;4980612;28;20409;-73
2022/11/07 05:34:39;;;;;;;6.15;1.15;;;14.70;99.90;;;;;;4981260;28;20576;-73
2022/11/07 05:37:12;;;;;;;5.38;1.00;;;14.70;99.90;;;;;;4948673;28;20054;-73
2022/11/07 05:39:38;;;;;;;;;;;14.60;99.90;;;;;;4965098;28;20035;-74
2022/11/07 05:42:04;;;;;;;3.67;1.20;;;14.70;99.90;;;;;;4979574;28;19910;-73
2022/11/07 05:44:30;;;;;;;4.68;1.02;;;14.60;99.90;;;;;;4967592;28;20471;-73
2022/11/07 05:46:57;;;;;;;4.32;1.08;;;14.60;99.90;;;;;;4981172;28;20117;-73
2022/11/07 05:49:25;;;;;;;5.68;1.13;;;14.60;99.90;;;;;;4979376;28;20039;-73
2022/11/07 05:51:50;;;;;;;4.25;1.15;;;14.60;99.90;;;;;;4962298;28;20173;-73
2022/11/07 05:54:16;;;;;;;4.32;0.98;;;14.50;99.90;;;;;;4971619;28;20561;-72
2022/11/07 05:56:42;;;;;;;4.32;1.15;;;14.50;99.90;;;;;;4976840;28;20034;-72
2022/11/07 05:59:09;;;;;;;2.38;0.70;;;14.60;99.90;;;;;;4980219;28;20070;-73
2022/11/07 06:01:35;;;;;;;2.78;0.90;;;14.50;99.90;;;;;;4969779;28;20031;-74
2022/11/07 06:04:05;;;;;;;6.05;1.45;;;14.50;99.90;;;;;;4980826;28;20037;-73
2022/11/07 06:06:31;;;;;;;5.30;1.13;;;14.50;99.90;;;;;;4983486;28;20034;-73
2022/11/07 06:08:57;;;;;;;6.95;1.60;;;14.50;99.90;;;;;;4980371;28;20481;-74
2022/11/07 06:11:23;;;;;;;4.45;1.17;;;14.50;99.90;;;;;;4998183;28;20055;-73
2022/11/07 06:13:49;;;;;;;5.88;1.20;;;14.50;99.90;;;;;;4983988;28;20041;-73
2022/11/07 06:16:14;;;;;;;4.45;1.33;;;14.50;99.90;;;;;;4999260;28;20046;-73
2022/11/07 06:18:40;;;;;;;5.35;1.83;;;14.50;99.90;;;;;;4997800;28;20048;-74
2022/11/07 06:21:06;;;;;;;4.03;1.20;;;14.50;99.90;;;;;;4987087;28;20061;-74
2022/11/07 06:23:32;;;;;;;7.32;1.60;;;14.50;99.90;;;;;;4961082;28;20037;-74
2022/11/07 06:25:58;;;;;;;5.85;1.92;;;14.60;99.90;;;;;;4959101;28;20117;-72
2022/11/07 06:28:24;;;;;;;7.40;1.30;;;14.50;99.90;;;;;;4982115;28;20466;-73
2022/11/07 06:30:50;;;;;;;6.10;1.13;;;14.50;99.90;;;;;;4984553;28;20050;-73
2022/11/07 06:33:17;;;;;;;6.22;1.20;;;14.50;99.90;;;;;;4980729;28;20551;-74
2022/11/07 06:35:44;;;;;;;5.15;1.48;;;14.60;99.90;;;;;;4981594;28;20441;-74
2022/11/07 06:38:11;;;;;;;5.68;1.70;;;14.60;99.90;;;;;;4965885;28;20425;-73
2022/11/07 06:40:40;;;;;;;7.47;1.67;;;14.70;99.90;;;;;;4967194;28;20038;-72
2022/11/07 06:43:17;;;;;;;6.20;1.67;;;14.70;99.90;;;;;;4944560;28;20074;-73
2022/11/07 06:45:44;;;;;;;8.18;2.25;;;14.80;99.90;;;;;;4967723;28;20088;-73
2022/11/07 06:48:11;;;;;;;7.00;1.23;;;14.90;99.90;;;;;;4960992;28;20041;-73
2022/11/07 06:50:37;;;;;;;9.27;1.80;;;14.90;99.90;;;;;;4967125;28;20046;-75
2022/11/07 06:53:07;;;;;;;6.00;1.60;;;14.90;99.90;;;;;;4979601;28;20109;-74
2022/11/07 06:55:34;;;;;;;5.22;1.55;;;14.90;99.90;;;;;;4976823;28;20043;-73
2022/11/07 06:58:00;;;;;;;;;;;15.10;99.90;;;;;;4979476;28;20118;-73
2022/11/07 07:00:29;;;;;;;6.07;1.55;;;15.20;99.90;;;;;;5002518;28;19953;-74
2022/11/07 07:02:55;;;;;;;5.72;1.38;;;15.30;99.90;;;;;;4998297;28;20030;-74
2022/11/07 07:05:21;;;;;;;8.38;1.60;;;15.30;99.90;;;;;;4961222;28;20049;-74
2022/11/07 07:07:47;;;;;;;8.23;1.88;;;15.40;99.90;;;;;;4985298;28;20038;-73
2022/11/07 07:10:21;;;;;;;6.47;1.45;;;15.50;99.90;;;;;;4976169;28;20039;-74
2022/11/07 07:12:46;;;;;;;6.50;1.63;;;15.60;99.90;;;;;;4976598;28;20042;-72
2022/11/07 07:15:12;;;;;;;5.28;1.85;;;15.60;99.90;;;;;;4989199;28;20038;-74
2022/11/07 07:17:38;;;;;;;5.53;1.83;;;15.70;99.90;;;;;;4972552;28;20109;-72
2022/11/07 07:20:05;;;;;;;6.57;2.05;;;15.70;99.90;;;;;;4996404;28;20493;-73
2022/11/07 07:22:30;;;;;;;7.13;1.60;;;15.80;99.90;;;;;;4949480;28;20246;-73
2022/11/07 07:24:56;;;;;;;6.10;2.10;;;15.80;99.90;;;;;;4960989;28;20054;-73
2022/11/07 07:27:22;;;;;;;5.82;1.92;;;15.90;99.90;;;;;;4975377;28;20370;-73
2022/11/07 07:29:48;;;;;;;10.10;2.17;;;15.90;99.90;;;;;;4977812;28;20065;-73
2022/11/07 07:32:14;;;;;;;5.65;1.85;;;15.90;99.90;;;;;;4969483;28;20039;-73
2022/11/07 07:34:40;;;;;;;4.90;1.70;;;16.00;99.90;;;;;;4980676;28;20606;-72
2022/11/07 07:37:05;;;;;;;6.20;1.85;;;16.00;99.90;;;;;;4942772;28;20061;-73
2022/11/07 07:39:31;;;;;;;8.10;1.90;;;16.10;99.90;;;;;;4971190;28;20121;-73
2022/11/07 07:41:58;;;;;;;9.52;2.05;;;16.20;99.90;;;;;;4977633;28;20466;-74
2022/11/07 07:44:24;;;;;;;7.07;1.60;;;16.30;99.90;;;;;;4974669;28;20377;-73
2022/11/07 07:46:50;;;;;;;7.22;1.35;;;16.30;99.90;;;;;;4976921;28;20031;-73
2022/11/07 07:49:16;;;;;;;6.53;1.70;;;16.50;99.90;;;;;;4962029;28;20074;-74
2022/11/07 07:51:41;;;;;;;5.47;1.40;;;16.60;99.90;;;;;;4981728;28;20436;-73
2022/11/07 07:54:09;;;;;;;7.28;1.55;;;16.70;99.90;;;;;;4979404;28;20089;-73
2022/11/07 07:56:35;;;;;;;5.90;1.40;;;16.70;99.90;;;;;;4973834;28;20057;-73
2022/11/07 07:59:02;;;;;;;8.18;1.98;;;16.80;99.90;;;;;;4977699;28;20085;-73
2022/11/07 08:01:30;;;;;;;7.97;1.73;;;17.00;99.90;;;;;;4976068;28;20038;-74
2022/11/07 08:03:56;;;;;;;6.07;1.65;;;17.10;99.90;;;;;;4961623;28;20042;-73
2022/11/07 08:06:22;;;;;;;6.20;1.48;;;17.40;99.90;;;;;;4960899;28;20358;-72
2022/11/07 08:08:47;;;;;;;5.05;1.35;;;19.50;99.90;;;;;;4958266;28;20066;-74
2022/11/07 08:11:13;;;;;;;5.07;1.55;;;20.90;99.90;;;;;;4960358;28;20076;-73
2022/11/07 08:13:39;;;;;;;5.25;1.50;;;21.80;99.90;;;;;;4954896;28;20459;-73
2022/11/07 08:16:09;;;;;;;5.60;1.50;;;22.70;99.90;;;;;;4965225;28;20058;-72
2022/11/07 08:18:38;;;;;;;5.15;1.60;;;20.60;99.90;;;;;;4978822;28;20083;-74
2022/11/07 08:21:04;;;;;;;5.28;1.73;;;20.10;99.90;;;;;;4957240;28;20034;-73
2022/11/07 08:23:30;;;;;;;3.38;1.15;;;19.60;99.90;;;;;;4977454;28;20042;-74
2022/11/07 08:25:58;;;;;;;6.00;1.45;;;19.50;99.90;;;;;;4968850;28;20034;-74
2022/11/07 08:28:26;;;;;;;5.97;1.40;;;19.20;99.90;;;;;;4978483;28;20386;-74
2022/11/07 08:31:10;;;;;;;4.03;1.50;;;19.10;99.90;;;;;;4968175;28;20104;-74
2022/11/07 08:33:36;;;;;;;5.00;1.33;;;19.20;99.90;;;;;;4993084;28;20058;-73
2022/11/07 08:36:04;;;;;;;4.05;1.10;;;19.30;99.90;;;;;;4997349;28;20358;-72
2022/11/07 08:38:32;;;;;;;5.03;1.40;;;19.40;99.90;;;;;;5003089;28;20045;-73
2022/11/07 08:40:58;;;;;;;4.57;1.10;;;19.30;99.90;;;;;;4986255;28;20140;-72
2022/11/07 08:43:24;;;;;;;4.72;1.38;;;19.10;99.90;;;;;;4967629;28;20112;-74
2022/11/07 08:45:54;;;;;;;5.25;1.23;;;18.90;99.90;;;;;;4987113;28;21655;-74
2022/11/07 08:48:21;;;;;;;5.75;1.40;;;18.90;99.90;;;;;;4983706;28;20026;-74
2022/11/07 08:50:50;;;;;;;;;;;19.10;99.90;;;;;;4983723;28;20082;-74
2022/11/07 08:53:21;;;;;;;4.65;1.30;;;19.10;99.90;;;;;;4964685;28;19949;-73
2022/11/07 08:55:48;;;;;;;5.07;1.30;;;19.10;99.90;;;;;;4988144;28;20042;-74
2022/11/07 08:58:14;;;;;;;5.15;1.45;;;19.00;99.90;;;;;;4993322;28;20039;-75
2022/11/07 09:00:42;;;;;;;3.22;1.00;;;19.30;99.90;;;;;;4960245;28;20413;-74
2022/11/07 09:03:10;;;;;;;5.57;1.15;;;19.50;99.90;;;;;;4965164;28;20457;-75
2022/11/07 09:05:38;;;;;;;3.72;1.13;;;19.80;99.90;;;;;;4981163;28;20089;-75
2022/11/07 09:08:04;;;;;;;8.95;1.60;;;19.80;99.90;;;;;;4985040;28;20485;-75
2022/11/07 09:10:30;;;;;;;2.80;0.95;;;20.10;99.90;;;;;;4982706;28;20047;-73
2022/11/07 09:12:56;;;;;;;5.00;1.38;;;20.20;99.90;;;;;;4968700;28;20105;-73
2022/11/07 09:15:22;;;;;;;3.58;0.73;;;20.20;99.90;;;;;;4963658;28;20046;-73
2022/11/07 09:17:49;;;;;;;5.57;1.20;;;19.80;99.90;;;;;;4980495;28;20065;-73
2022/11/07 09:20:20;;;;;;;5.38;1.48;;;19.80;99.90;;;;;;4978239;28;20085;-74
2022/11/07 09:22:47;;;;;;;5.63;1.13;;;20.10;99.90;;;;;;4982398;28;20046;-75
2022/11/07 09:25:13;;;;;;;6.53;1.30;;;20.20;99.90;;;;;;4988746;28;20117;-74
2022/11/07 09:27:38;;;;;;;7.30;1.52;;;20.40;99.90;;;;;;4977599;28;20444;-74
2022/11/07 09:30:05;;;;;;;5.38;1.20;;;20.80;99.90;;;;;;4967902;28;20037;-74
2022/11/07 09:32:31;;;;;;;5.38;1.70;;;20.90;99.90;;;;;;4989594;28;20038;-74
2022/11/07 09:34:57;;;;;;;5.90;1.80;;;21.50;99.90;;;;;;4974110;28;20646;-76
2022/11/07 09:37:23;;;;;;;4.30;1.20;;;21.70;99.90;;;;;;4983471;28;20038;-74
2022/11/07 09:39:50;;;;;;;5.47;1.42;;;22.00;99.90;;;;;;4998635;28;20026;-74
2022/11/07 09:42:25;;;;;;;5.43;1.55;;;22.00;99.90;;;;;;5000388;28;20046;-74
2022/11/07 09:44:57;;;;;;;9.90;1.85;;;22.20;99.90;;;;;;4998143;28;20056;-74
2022/11/07 09:47:36;;;;;;;6.93;2.13;;;22.80;99.90;;;;;;4999121;28;20104;-74
2022/11/07 09:50:10;;;;;;;;;;;23.30;98.70;;;;;;4983911;28;20039;-74
2022/11/07 09:52:53;;;;;;;10.60;1.90;;;22.60;98.60;;;;;;4987498;28;19921;-73
2022/11/07 09:55:30;;;;;;;5.55;1.73;;;22.80;98.70;;;;;;4959541;28;20533;-73
2022/11/07 09:58:06;;;;;;;4.15;1.60;;;23.30;98.70;;;;;;4978169;28;20106;-74
2022/11/07 10:00:32;;;;;;;6.75;1.30;;;23.60;97.70;;;;;;4995178;28;20038;-73
2022/11/07 10:03:00;;;;;;;3.53;1.15;;;22.20;98.60;;;;;;5001395;28;20077;-74
2022/11/07 10:05:53;;;;;;;5.30;1.73;;;21.90;98.60;;;;;;4974841;28;20121;-73
2022/11/07 10:08:39;;;;;;;3.83;1.00;;;21.90;99.20;;;;;;4972134;28;20045;-74
2022/11/07 10:11:26;;;;;;;3.35;1.10;;;21.60;98.60;;;;;;4979905;28;20188;-74
2022/11/07 10:14:00;;;;;;;8.02;1.42;;;22.10;97.40;;;;;;4980536;28;20045;-74
2022/11/07 10:16:38;;;;;;;7.65;1.60;;;22.30;97.60;;;;;;4981881;28;20043;-73
2022/11/07 10:19:22;;;;;;;3.97;1.23;;;23.30;96.60;;;;;;4960587;28;20769;-74
2022/11/07 10:21:57;;;;;;;8.60;1.70;;;22.10;97.20;;;;;;4998783;28;20045;-73
2022/11/07 10:24:47;;;;;;;7.82;1.50;;;22.20;97.90;;;;;;4998190;28;20045;-74
2022/11/07 10:27:13;;;;;;;5.07;1.42;;;21.90;97.10;;;;;;4971842;28;20046;-74
2022/11/07 10:29:44;;;;;;;6.78;1.23;;;21.60;97.50;;;;;;4996419;28;20404;-74
2022/11/07 10:32:38;;;;;;;6.05;1.75;;;21.70;96.90;;;;;;4972044;28;20034;-75
2022/11/07 10:35:30;;;;;;;4.88;1.27;;;22.20;96.90;;;;;;4979029;28;20045;-74
2022/11/07 10:37:59;;;;;;;5.32;1.40;;;22.40;96.60;;;;;;4975966;28;20642;-74
2022/11/07 10:40:34;;;;;;;6.68;1.38;;;22.00;96.10;;;;;;4981153;28;21671;-74
2022/11/07 10:43:03;;;;;;;3.42;1.00;;;21.60;96.70;;;;;;4978523;28;20132;-74
2022/11/07 10:45:30;;;;;;;4.07;1.45;;;22.50;95.90;;;;;;4973053;28;20030;-74
2022/11/07 10:48:01;;;;;;;3.72;0.93;;;22.50;95.90;;;;;;4992362;28;20473;-73
2022/11/07 10:50:27;;;;;;;3.28;1.20;;;21.80;96.60;;;;;;4952254;28;20050;-74
2022/11/07 10:53:08;;;;;;;4.80;1.20;;;21.40;96.90;;;;;;4959246;28;20046;-74
2022/11/07 10:55:43;;;;;;;5.00;1.30;;;21.00;97.70;;;;;;4997224;28;20515;-75
2022/11/07 10:58:20;;;;;;;4.28;1.38;;;20.90;97.80;;;;;;4992945;28;20434;-74
2022/11/07 11:01:01;;;;;;;5.40;1.15;;;21.30;97.50;;;;;;4981513;28;20431;-73
2022/11/07 11:03:38;;;;;;;4.25;1.20;;;21.30;97.20;;;;;;4973694;28;20126;-74
2022/11/07 11:06:26;;;;;;;6.00;1.25;;;21.00;97.60;;;;;;4971196;28;20117;-73
2022/11/07 11:08:52;;;;;;;5.82;1.80;;;21.50;97.30;;;;;;4977197;28;21059;-74
2022/11/07 11:11:29;;;;;;;7.30;1.20;;;21.70;96.80;;;;;;4971583;28;20129;-74
2022/11/07 11:14:11;;;;;;;3.88;0.93;;;21.30;97.20;;;;;;4972109;28;20611;-75
2022/11/07 11:16:39;;;;;;;5.57;1.60;;;21.00;97.30;;;;;;4990593;28;20026;-74
2022/11/07 11:19:16;;;;;;;4.28;1.02;;;20.80;97.40;;;;;;4981699;28;20096;-74
2022/11/07 11:21:44;;;;;;;3.28;1.02;;;20.80;97.20;;;;;;4966342;28;20090;-74
2022/11/07 11:24:28;;;;;;;4.93;1.33;;;20.60;97.10;;;;;;4976248;28;20065;-74
2022/11/07 11:26:58;;;;;;;4.07;1.38;;;21.20;97.20;;;;;;4976392;28;20039;-73
2022/11/07 11:29:50;;;;;;;11.60;3.55;;;21.70;96.70;;;;;;4957179;28;20109;-75
2022/11/07 11:32:25;;;;;;;4.82;1.40;;;22.00;96.10;;;;;;4969010;28;20047;-73
2022/11/07 11:35:06;;;;;;;3.50;1.35;;;22.50;95.90;;;;;;4956168;28;20043;-75
2022/11/07 11:37:37;;;;;;;7.15;1.65;;;22.90;95.10;;;;;;4971101;28;20498;-75
2022/11/07 11:40:06;;;;;;;4.22;1.30;;;22.80;94.80;;;;;;4975407;28;20059;-74
2022/11/07 11:42:32;;;;;;;5.57;1.33;;;23.40;94.60;;;;;;4959908;28;20046;-73
2022/11/07 11:45:06;;;;;;;4.90;1.55;;;23.60;94.40;;;;;;4962043;28;20041;-74
2022/11/07 11:47:39;;;;;;;9.65;2.08;;;24.00;94.10;;;;;;4986487;28;20042;-74
2022/11/07 11:50:24;;;;;;;9.20;1.67;;;23.90;93.80;;;;;;4939126;28;20121;-74
2022/11/07 11:52:49;;;;;;;4.72;1.70;;;23.10;94.50;;;;;;4973343;28;20071;-74
2022/11/07 11:55:19;;;;;;;9.48;3.92;;;22.70;94.80;;;;;;4974093;28;20508;-75
2022/11/07 11:57:50;;;;;;;6.57;1.67;;;22.50;95.20;;;;;;4955219;28;20031;-74
2022/11/07 12:00:19;;;;;;;9.25;2.03;;;22.30;95.40;;;;;;4955532;28;20043;-74
2022/11/07 12:03:02;;;;;;;4.40;1.60;;;22.10;95.90;;;;;;4977297;28;20106;-74
2022/11/07 12:05:46;;;;;;;6.00;1.65;;;22.00;96.20;;;;;;4975771;28;20045;-75
2022/11/07 12:08:15;;;;;;;;;;;21.90;96.40;;;;;;4934273;28;20042;-75
2022/11/07 12:11:06;;;;;;;7.50;2.05;;;23.00;96.20;;;;;;4977477;28;19928;-74
2022/11/07 12:13:59;;;;;;;6.80;1.67;;;24.20;95.10;;;;;;4989279;28;20038;-74
2022/11/07 12:16:37;;;;;;;8.27;2.17;;;24.50;94.20;;;;;;4974426;28;20054;-74
2022/11/07 12:19:34;;;;;;;11.18;2.38;;;25.20;94.10;;;;;;4975960;28;20049;-75
2022/11/07 12:22:30;;;;;;;11.93;2.50;;;25.00;93.80;;;;;;4993341;28;20042;-75
2022/11/07 12:25:02;;;;;;;19.23;3.03;;;23.80;94.10;;;;;;4989004;28;20220;-75
2022/11/07 12:27:48;;;;;;;22.73;2.90;;;23.70;95.00;;;;;;4984509;28;20394;-76
2022/11/07 12:30:20;;;;;;;7.40;1.90;;;24.20;95.10;;;;;;4991139;28;20125;-73
2022/11/07 12:32:57;;;;;;;7.45;2.15;;;25.20;94.50;;;;;;4995412;28;20045;-74
2022/11/07 12:35:34;;;;;;;8.13;2.03;;;25.60;94.50;;;;;;4995742;28;20122;-74
2022/11/07 12:38:37;;;;;;;7.97;2.25;;;26.30;94.10;;;;;;4995444;28;20120;-75
2022/11/07 12:41:23;;;;;;;4.90;2.10;;;25.50;94.20;;;;;;4932820;28;20035;-75
2022/11/07 12:43:52;;;;;;;4.85;2.10;;;24.50;95.20;;;;;;4983823;28;20035;-75
2022/11/07 12:46:43;;;;;;;10.05;2.35;;;25.40;95.10;;;;;;4990161;28;20076;-75
2022/11/07 12:49:33;;;;;;;7.65;1.98;;;25.70;94.50;;;;;;4975091;28;20034;-74
2022/11/07 12:52:34;;;;;;;5.93;1.35;;;24.50;95.20;;;;;;4994069;28;20386;-74
2022/11/07 12:55:21;;;;;;;5.82;2.10;;;23.80;96.50;;;;;;4996616;28;20038;-75
2022/11/07 12:57:53;;;;;;;5.90;1.67;;;23.20;97.10;;;;;;4972083;28;20553;-74
2022/11/07 13:00:23;;;;;;;7.25;2.67;;;24.70;96.40;;;;;;4956237;28;20058;-75
2022/11/07 13:03:12;;;;;;;6.15;1.90;;;24.60;96.30;;;;;;4973767;28;20049;-74
2022/11/07 13:05:58;;;;;;;5.07;2.13;;;24.80;96.10;;;;;;4984154;28;20066;-75
2022/11/07 13:08:37;;;;;;;6.20;1.40;;;24.70;96.30;;;;;;4974058;28;20082;-75
2022/11/07 13:11:18;;;;;;;6.90;1.90;;;22.80;98.50;;;;;;4961615;28;20101;-74
2022/11/07 13:14:07;;;;;;;5.45;2.08;;;22.30;99.50;;;;;;4974375;28;20045;-77
2022/11/07 13:16:37;;;;;;;5.90;1.55;;;21.80;99.90;;;;;;4994206;28;20116;-75
2022/11/07 13:19:32;;;;;;;6.22;1.48;;;21.80;99.90;;;;;;4994650;28;20038;-76